sensor_id;sensor_type;location;lat;lon;timestamp;temperature;humidity
41080;DHT22;26826;50.718;7.114;2022-08-11T00:08:08;23.50;69.50
41080;DHT22;26826;50.718;7.114;2022-08-11T00:18:10;23.10;70.40
41080;DHT22;26826;50.718;7.114;2022-08-11T00:28:23;22.50;71.80
41080;DHT22;26826;50.718;7.114;2022-08-11T00:38:27;22.30;73.60
41080;DHT22;26826;50.718;7.114;2022-08-11T01:41:06;21.10;78.60
41080;DHT22;26826;50.718;7.114;2022-08-11T01:51:23;20.80;77.80
41080;DHT22;26826;50.718;7.114;2022-08-11T02:11:36;20.60;80.10
41080;DHT22;26826;50.718;7.114;2022-08-11T02:21:45;20.40;80.80
41080;DHT22;26826;50.718;7.114;2022-08-11T02:32:14;20.50;80.90
41080;DHT22;26826;50.718;7.114;2022-08-11T02:52:52;20.20;80.40
41080;DHT22;26826;50.718;7.114;2022-08-11T03:13:18;19.60;82.30
41080;DHT22;26826;50.718;7.114;2022-08-11T03:24:02;19.50;83.40
41080;DHT22;26826;50.718;7.114;2022-08-11T03:34:16;19.60;83.60
41080;DHT22;26826;50.718;7.114;2022-08-11T03:44:42;19.50;84.50
41080;DHT22;26826;50.718;7.114;2022-08-11T03:55:07;19.20;87.50
41080;DHT22;26826;50.718;7.114;2022-08-11T04:26:38;18.70;91.90
41080;DHT22;26826;50.718;7.114;2022-08-11T04:36:55;18.50;93.70
41080;DHT22;26826;50.718;7.114;2022-08-11T04:58:18;18.50;96.40
41080;DHT22;26826;50.718;7.114;2022-08-11T05:09:13;18.30;98.50
41080;DHT22;26826;50.718;7.114;2022-08-11T05:19:19;18.40;99.70
41080;DHT22;26826;50.718;7.114;2022-08-11T05:29:41;18.40;99.90
41080;DHT22;26826;50.718;7.114;2022-08-11T05:40:10;18.50;99.90
41080;DHT22;26826;50.718;7.114;2022-08-11T05:50:30;18.60;99.90
41080;DHT22;26826;50.718;7.114;2022-08-11T06:00:49;18.80;99.90
41080;DHT22;26826;50.718;7.114;2022-08-11T06:10:50;19.50;99.90
41080;DHT22;26826;50.718;7.114;2022-08-11T06:20:53;20.20;99.20
41080;DHT22;26826;50.718;7.114;2022-08-11T06:30:54;20.80;97.90
41080;DHT22;26826;50.718;7.114;2022-08-11T06:41:22;21.50;95.70
41080;DHT22;26826;50.718;7.114;2022-08-11T06:51:34;22.10;94.70
41080;DHT22;26826;50.718;7.114;2022-08-11T07:01:52;22.80;91.70
41080;DHT22;26826;50.718;7.114;2022-08-11T07:12:01;23.20;89.90
41080;DHT22;26826;50.718;7.114;2022-08-11T07:22:26;23.70;86.10
41080;DHT22;26826;50.718;7.114;2022-08-11T07:32:52;24.10;84.50
41080;DHT22;26826;50.718;7.114;2022-08-11T07:42:54;24.60;83.00
41080;DHT22;26826;50.718;7.114;2022-08-11T07:52:57;25.30;81.70
41080;DHT22;26826;50.718;7.114;2022-08-11T08:02:59;25.90;79.20
41080;DHT22;26826;50.718;7.114;2022-08-11T08:13:19;26.70;76.80
41080;DHT22;26826;50.718;7.114;2022-08-11T08:23:39;26.80;76.00
41080;DHT22;26826;50.718;7.114;2022-08-11T08:33:41;27.20;74.20
41080;DHT22;26826;50.718;7.114;2022-08-11T08:43:44;28.50;72.10
41080;DHT22;26826;50.718;7.114;2022-08-11T08:53:52;29.30;70.50
41080;DHT22;26826;50.718;7.114;2022-08-11T09:03:54;29.40;68.80
41080;DHT22;26826;50.718;7.114;2022-08-11T09:13:55;29.70;68.80
41080;DHT22;26826;50.718;7.114;2022-08-11T09:23:55;30.50;67.00
41080;DHT22;26826;50.718;7.114;2022-08-11T09:34:15;31.20;67.60
41080;DHT22;26826;50.718;7.114;2022-08-11T09:44:16;32.70;64.40
41080;DHT22;26826;50.718;7.114;2022-08-11T09:54:36;32.40;62.20
41080;DHT22;26826;50.718;7.114;2022-08-11T10:04:44;32.90;63.00
41080;DHT22;26826;50.718;7.114;2022-08-11T10:14:47;33.90;60.40
41080;DHT22;26826;50.718;7.114;2022-08-11T10:25:09;35.20;57.70
41080;DHT22;26826;50.718;7.114;2022-08-11T10:35:30;34.70;58.00
41080;DHT22;26826;50.718;7.114;2022-08-11T10:45:36;33.70;57.80
41080;DHT22;26826;50.718;7.114;2022-08-11T10:55:56;34.80;57.50
41080;DHT22;26826;50.718;7.114;2022-08-11T11:16:57;36.40;56.70
41080;DHT22;26826;50.718;7.114;2022-08-11T11:27:31;37.70;55.70
41080;DHT22;26826;50.718;7.114;2022-08-11T11:37:34;35.80;54.60
41080;DHT22;26826;50.718;7.114;2022-08-11T11:47:37;34.80;54.80
41080;DHT22;26826;50.718;7.114;2022-08-11T11:57:38;35.10;54.60
41080;DHT22;26826;50.718;7.114;2022-08-11T12:07:57;35.90;54.00
41080;DHT22;26826;50.718;7.114;2022-08-11T12:18:17;33.80;55.50
41080;DHT22;26826;50.718;7.114;2022-08-11T12:28:19;34.30;55.70
41080;DHT22;26826;50.718;7.114;2022-08-11T12:38:22;34.90;54.50
41080;DHT22;26826;50.718;7.114;2022-08-11T12:48:35;34.90;53.60
41080;DHT22;26826;50.718;7.114;2022-08-11T12:58:55;35.90;54.10
41080;DHT22;26826;50.718;7.114;2022-08-11T13:09:16;37.60;53.10
41080;DHT22;26826;50.718;7.114;2022-08-11T13:19:18;36.80;51.90
41080;DHT22;26826;50.718;7.114;2022-08-11T13:29:25;35.70;52.90
41080;DHT22;26826;50.718;7.114;2022-08-11T13:39:29;36.60;52.20
41080;DHT22;26826;50.718;7.114;2022-08-11T13:49:34;35.30;52.90
41080;DHT22;26826;50.718;7.114;2022-08-11T13:59:35;36.00;52.30
41080;DHT22;26826;50.718;7.114;2022-08-11T14:09:39;37.40;51.80
41080;DHT22;26826;50.718;7.114;2022-08-11T14:19:43;36.70;51.10
41080;DHT22;26826;50.718;7.114;2022-08-11T14:29:46;36.10;51.60
41080;DHT22;26826;50.718;7.114;2022-08-11T14:39:50;37.20;51.70
41080;DHT22;26826;50.718;7.114;2022-08-11T14:49:54;37.30;51.00
41080;DHT22;26826;50.718;7.114;2022-08-11T14:59:57;36.20;50.70
41080;DHT22;26826;50.718;7.114;2022-08-11T15:10:02;36.30;51.20
41080;DHT22;26826;50.718;7.114;2022-08-11T15:20:10;37.30;50.00
41080;DHT22;26826;50.718;7.114;2022-08-11T15:30:30;36.60;49.90
41080;DHT22;26826;50.718;7.114;2022-08-11T15:40:51;36.90;50.30
41080;DHT22;26826;50.718;7.114;2022-08-11T15:51:33;36.80;50.20
41080;DHT22;26826;50.718;7.114;2022-08-11T16:01:36;36.20;50.60
41080;DHT22;26826;50.718;7.114;2022-08-11T16:12:03;35.20;50.40
41080;DHT22;26826;50.718;7.114;2022-08-11T16:22:08;35.10;51.00
41080;DHT22;26826;50.718;7.114;2022-08-11T16:32:12;34.70;50.80
41080;DHT22;26826;50.718;7.114;2022-08-11T16:42:16;34.10;51.20
41080;DHT22;26826;50.718;7.114;2022-08-11T16:52:40;33.80;51.20
41080;DHT22;26826;50.718;7.114;2022-08-11T17:02:52;34.10;51.80
41080;DHT22;26826;50.718;7.114;2022-08-11T17:13:12;34.10;51.70
41080;DHT22;26826;50.718;7.114;2022-08-11T17:23:15;33.20;51.60
41080;DHT22;26826;50.718;7.114;2022-08-11T17:33:34;33.90;51.30
41080;DHT22;26826;50.718;7.114;2022-08-11T17:43:54;34.70;51.00
41080;DHT22;26826;50.718;7.114;2022-08-11T17:54:14;35.00;50.50
41080;DHT22;26826;50.718;7.114;2022-08-11T18:04:33;33.00;52.20
41080;DHT22;26826;50.718;7.114;2022-08-11T18:14:36;31.90;52.90
41080;DHT22;26826;50.718;7.114;2022-08-11T18:25:02;31.40;54.00
41080;DHT22;26826;50.718;7.114;2022-08-11T18:35:24;31.10;54.40
41080;DHT22;26826;50.718;7.114;2022-08-11T18:45:45;30.80;55.20
41080;DHT22;26826;50.718;7.114;2022-08-11T18:56:06;30.50;55.50
41080;DHT22;26826;50.718;7.114;2022-08-11T19:06:26;30.10;57.60
41080;DHT22;26826;50.718;7.114;2022-08-11T19:16:48;29.70;57.20
41080;DHT22;26826;50.718;7.114;2022-08-11T19:27:09;29.30;58.30
41080;DHT22;26826;50.718;7.114;2022-08-11T19:37:30;28.90;58.70
41080;DHT22;26826;50.718;7.114;2022-08-11T19:47:51;28.60;59.50
41080;DHT22;26826;50.718;7.114;2022-08-11T19:58:12;28.20;60.30
41080;DHT22;26826;50.718;7.114;2022-08-11T20:08:34;27.70;60.80
41080;DHT22;26826;50.718;7.114;2022-08-11T20:18:55;27.50;60.80
41080;DHT22;26826;50.718;7.114;2022-08-11T20:29:15;27.20;61.60
41080;DHT22;26826;50.718;7.114;2022-08-11T20:39:38;26.90;62.10
41080;DHT22;26826;50.718;7.114;2022-08-11T20:49:59;26.60;62.20
41080;DHT22;26826;50.718;7.114;2022-08-11T21:00:19;26.30;63.20
41080;DHT22;26826;50.718;7.114;2022-08-11T21:10:39;25.80;65.10
41080;DHT22;26826;50.718;7.114;2022-08-11T21:21:01;25.50;66.50
41080;DHT22;26826;50.718;7.114;2022-08-11T21:31:24;25.00;68.50
41080;DHT22;26826;50.718;7.114;2022-08-11T21:41:45;24.90;68.00
41080;DHT22;26826;50.718;7.114;2022-08-11T21:52:05;24.60;68.50
41080;DHT22;26826;50.718;7.114;2022-08-11T22:02:25;24.50;69.10
41080;DHT22;26826;50.718;7.114;2022-08-11T22:12:45;24.10;69.10
41080;DHT22;26826;50.718;7.114;2022-08-11T22:23:04;23.80;69.00
41080;DHT22;26826;50.718;7.114;2022-08-11T22:33:24;23.60;70.20
41080;DHT22;26826;50.718;7.114;2022-08-11T22:43:44;23.70;70.30
41080;DHT22;26826;50.718;7.114;2022-08-11T22:54:03;23.50;70.00
41080;DHT22;26826;50.718;7.114;2022-08-11T23:04:23;23.30;71.70
41080;DHT22;26826;50.718;7.114;2022-08-11T23:14:43;23.10;72.30
41080;DHT22;26826;50.718;7.114;2022-08-11T23:25:02;22.80;73.10
41080;DHT22;26826;50.718;7.114;2022-08-11T23:35:21;22.70;74.60
41080;DHT22;26826;50.718;7.114;2022-08-11T23:45:40;22.50;75.10
41080;DHT22;26826;50.718;7.114;2022-08-11T23:56:00;22.30;74.90
